createdAt,value
2023-03-24T00:01:07.791Z,99151.23
2023-03-24T00:03:36.129Z,99145.32
2023-03-24T00:06:04.008Z,99139.64
2023-03-24T00:08:36.510Z,99131.02
2023-03-24T00:11:06.106Z,99125.19
2023-03-24T00:13:37.660Z,99123.53
2023-03-24T00:16:11.150Z,99119.53
2023-03-24T00:18:38.826Z,99115.93
2023-03-24T00:21:10.358Z,99113.34
2023-03-24T00:23:37.355Z,99112.98
2023-03-24T00:26:14.929Z,99109.80
2023-03-24T00:28:45.151Z,99112.04
2023-03-24T00:31:15.596Z,99113.17
2023-03-24T00:33:43.507Z,99113.09
2023-03-24T00:36:13.748Z,99111.94
2023-03-24T00:38:41.207Z,99112.52
2023-03-24T00:41:08.536Z,99119.02
2023-03-24T00:43:36.688Z,99111.04
2023-03-24T00:46:07.382Z,99110.15
2023-03-24T00:48:41.498Z,99102.91
2023-03-24T00:51:10.391Z,99105.98
2023-03-24T00:53:43.052Z,99104.90
2023-03-24T00:56:15.042Z,99100.56
2023-03-24T00:58:42.803Z,99102.51
2023-03-24T01:01:10.245Z,99096.06
2023-03-24T01:03:50.218Z,99091.11
2023-03-24T01:06:18.142Z,99090.97
2023-03-24T01:08:45.300Z,99092.10
2023-03-24T01:11:14.386Z,99085.45
2023-03-24T01:13:42.026Z,99085.61
2023-03-24T01:16:09.392Z,99085.27
2023-03-24T01:18:40.245Z,99085.96
2023-03-24T01:21:11.200Z,99087.74
2023-03-24T01:23:38.312Z,99084.55
2023-03-24T01:26:07.011Z,99086.67
2023-03-24T01:28:39.552Z,99088.65
2023-03-24T01:31:08.647Z,99093.70
2023-03-24T01:33:36.994Z,99090.05
2023-03-24T01:36:04.847Z,99086.98
2023-03-24T01:38:32.571Z,99081.91
2023-03-24T01:40:59.721Z,99077.94
2023-03-24T01:43:30.606Z,99081.90
2023-03-24T01:46:20.837Z,99084.40
2023-03-24T01:49:06.024Z,99079.04
2023-03-24T01:51:36.633Z,99081.55
2023-03-24T01:54:30.515Z,99075.90
2023-03-24T01:57:03.334Z,99078.98
2023-03-24T01:59:33.469Z,99082.73
2023-03-24T02:02:21.613Z,99088.35
2023-03-24T02:04:59.138Z,99089.80
2023-03-24T02:07:57.539Z,99085.92
2023-03-24T02:10:24.575Z,99089.80
2023-03-24T02:12:51.609Z,99093.27
2023-03-24T02:15:21.194Z,99100.38
2023-03-24T02:18:09.887Z,99104.34
2023-03-24T02:21:11.910Z,99108.66
2023-03-24T02:24:15.512Z,99108.73
2023-03-24T02:26:48.515Z,99107.20
2023-03-24T02:29:31.813Z,99103.25
2023-03-24T02:32:20.738Z,99103.20
2023-03-24T02:35:17.365Z,99103.96
2023-03-24T02:37:55.162Z,99106.52
2023-03-24T02:40:49.051Z,99104.73
2023-03-24T02:43:25.475Z,99105.80
2023-03-24T02:46:13.071Z,99111.41
2023-03-24T02:49:09.706Z,99111.04
2023-03-24T02:51:59.854Z,99105.91
2023-03-24T02:54:47.730Z,99106.41
2023-03-24T02:57:32.461Z,99111.41
2023-03-24T03:00:47.628Z,99116.98
2023-03-24T03:03:44.525Z,99111.59
2023-03-24T03:06:23.936Z,99116.22
2023-03-24T03:08:51.622Z,99113.49
2023-03-24T03:11:18.916Z,99115.89
2023-03-24T03:13:52.118Z,99118.66
2023-03-24T03:16:25.512Z,99117.42
2023-03-24T03:18:58.330Z,99117.26
2023-03-24T03:21:29.233Z,99120.20
2023-03-24T03:24:16.623Z,99119.80
2023-03-24T03:26:45.703Z,99114.48
2023-03-24T03:29:16.609Z,99118.02
2023-03-24T03:31:49.224Z,99120.64
2023-03-24T03:34:34.347Z,99120.44
2023-03-24T03:37:22.600Z,99121.35
2023-03-24T03:39:53.991Z,99117.83
2023-03-24T03:42:21.175Z,99120.30
2023-03-24T03:44:48.630Z,99121.98
2023-03-24T03:47:18.447Z,99122.10
2023-03-24T03:49:45.673Z,99122.96
2023-03-24T03:52:14.067Z,99122.50
2023-03-24T03:54:42.879Z,99125.58
2023-03-24T03:57:10.836Z,99130.31
2023-03-24T04:00:19.389Z,99127.45
2023-03-24T04:03:44.469Z,99126.77
2023-03-24T04:06:43.808Z,99125.17
2023-03-24T04:09:35.899Z,99136.96
2023-03-24T04:12:12.660Z,99143.34
2023-03-24T04:15:01.493Z,99144.46
2023-03-24T04:17:43.787Z,99146.77
2023-03-24T04:20:46.020Z,99152.21
2023-03-24T04:23:39.433Z,99149.60
2023-03-24T04:26:09.931Z,99141.83
2023-03-24T04:29:22.801Z,99141.08
2023-03-24T04:32:04.465Z,99143.05
2023-03-24T04:34:34.702Z,99151.98
2023-03-24T04:37:14.082Z,99149.52
2023-03-24T04:40:05.465Z,99146.77
2023-03-24T04:42:37.861Z,99146.44
2023-03-24T04:45:05.528Z,99149.02
2023-03-24T04:47:58.184Z,99154.59
2023-03-24T04:50:39.312Z,99154.37
2023-03-24T04:53:10.074Z,99156.61
2023-03-24T04:55:50.360Z,99158.93
2023-03-24T04:58:29.365Z,99164.62
2023-03-24T05:00:58.127Z,99168.59
2023-03-24T05:03:25.929Z,99170.08
2023-03-24T05:05:57.012Z,99171.52
2023-03-24T05:08:23.997Z,99173.61
2023-03-24T05:10:51.230Z,99178.15
2023-03-24T05:13:18.514Z,99175.70
2023-03-24T05:15:54.678Z,99175.65
2023-03-24T05:18:34.304Z,99174.94
2023-03-24T05:21:03.015Z,99175.21
2023-03-24T05:23:30.245Z,99178.02
2023-03-24T05:26:02.723Z,99179.94
2023-03-24T05:28:31.181Z,99182.55
2023-03-24T05:30:58.490Z,99177.67
2023-03-24T05:33:45.613Z,99172.27
2023-03-24T05:36:15.346Z,99172.46
2023-03-24T05:38:43.354Z,99173.45
2023-03-24T05:41:10.460Z,99174.16
2023-03-24T05:43:39.680Z,99171.16
2023-03-24T05:47:32.476Z,99168.95
2023-03-24T05:50:01.049Z,99171.26
2023-03-24T05:52:31.803Z,99180.05
2023-03-24T05:55:12.345Z,99186.04
2023-03-24T05:57:43.950Z,99186.34
2023-03-24T06:00:23.577Z,99188.29
2023-03-24T06:03:18.141Z,99186.32
2023-03-24T06:05:53.633Z,99186.60
2023-03-24T06:08:22.770Z,99185.52
2023-03-24T06:10:53.649Z,99183.50
2023-03-24T06:13:23.236Z,99182.96
2023-03-24T06:15:54.877Z,99180.62
2023-03-24T06:18:52.769Z,99189.91
2023-03-24T06:21:41.504Z,99192.30
2023-03-24T06:24:15.010Z,99190.36
2023-03-24T06:26:44.854Z,99193.84
2023-03-24T06:29:13.840Z,99194.36
2023-03-24T06:31:42.412Z,99196.36
2023-03-24T06:34:10.967Z,99195.05
2023-03-24T06:36:40.851Z,99195.92
2023-03-24T06:39:09.914Z,99195.10
2023-03-24T06:41:39.509Z,99189.00
2023-03-24T06:44:10.138Z,99191.54
2023-03-24T06:46:40.934Z,99194.45
2023-03-24T06:49:09.613Z,99190.67
2023-03-24T06:51:38.234Z,99191.39
2023-03-24T06:54:08.632Z,99192.14
2023-03-24T06:56:37.778Z,99188.52
2023-03-24T06:59:07.340Z,99193.65
2023-03-24T07:01:36.420Z,99194.79
2023-03-24T07:04:29.442Z,99194.53
2023-03-24T07:07:19.717Z,99196.29
2023-03-24T07:10:22.005Z,99197.25
2023-03-24T07:12:51.349Z,99198.95
2023-03-24T07:15:20.033Z,99194.59
2023-03-24T07:17:55.817Z,99195.69
2023-03-24T07:20:46.426Z,99191.88
2023-03-24T07:23:21.857Z,99188.85
2023-03-24T07:26:08.799Z,99186.58
2023-03-24T07:28:46.499Z,99185.26
2023-03-24T07:31:18.309Z,99188.20
2023-03-24T07:33:48.031Z,99191.43
2023-03-24T07:36:17.121Z,99194.01
2023-03-24T07:38:45.759Z,99197.57
2023-03-24T07:41:19.415Z,99202.05
2023-03-24T07:43:52.200Z,99206.77
2023-03-24T07:46:25.863Z,99203.39
2023-03-24T07:49:03.248Z,99202.41
2023-03-24T07:51:39.781Z,99196.41
2023-03-24T07:54:35.753Z,99198.30
2023-03-24T07:57:04.682Z,99202.58
2023-03-24T07:59:34.344Z,99203.04
2023-03-24T08:02:19.287Z,99202.39
2023-03-24T08:05:18.619Z,99194.59
2023-03-24T08:07:54.420Z,99197.23
2023-03-24T08:10:28.139Z,99190.97
2023-03-24T08:13:02.200Z,99196.20
2023-03-24T08:15:30.506Z,99196.91
2023-03-24T08:18:04.028Z,99195.76
2023-03-24T08:20:34.213Z,99194.04
2023-03-24T08:23:05.045Z,99195.73
2023-03-24T08:25:34.811Z,99194.04
2023-03-24T08:28:03.659Z,99190.79
2023-03-24T08:30:32.877Z,99191.89
2023-03-24T08:33:02.262Z,99190.75
2023-03-24T08:35:35.047Z,99184.45
2023-03-24T08:38:06.825Z,99189.04
2023-03-24T08:40:37.883Z,99186.52
2023-03-24T08:43:10.272Z,99183.21
2023-03-24T08:45:38.831Z,99182.69
2023-03-24T08:48:08.513Z,99174.63
2023-03-24T08:50:41.108Z,99173.37
2023-03-24T08:53:11.781Z,99176.98
2023-03-24T08:55:43.331Z,99182.35
2023-03-24T08:58:18.938Z,99182.71
2023-03-24T09:00:48.039Z,99181.48
2023-03-24T09:03:22.803Z,99183.89
2023-03-24T09:05:57.425Z,99188.46
2023-03-24T09:08:26.662Z,99184.13
2023-03-24T09:10:55.094Z,99179.64
2023-03-24T09:13:25.065Z,99175.54
2023-03-24T09:15:55.029Z,99177.29
2023-03-24T09:18:23.676Z,99177.25
2023-03-24T09:20:54.862Z,99176.06
2023-03-24T09:23:23.886Z,99177.88
2023-03-24T09:25:53.923Z,99173.08
2023-03-24T09:28:24.562Z,99170.41
2023-03-24T09:31:04.039Z,99165.65
2023-03-24T09:33:34.436Z,99161.27
2023-03-24T09:36:03.487Z,99159.20
2023-03-24T09:38:35.235Z,99152.81
2023-03-24T09:41:04.601Z,99149.95
2023-03-24T09:43:44.193Z,99148.89
2023-03-24T09:46:38.084Z,99145.88
2023-03-24T09:49:11.522Z,99139.77
2023-03-24T09:51:44.864Z,99142.93
2023-03-24T09:54:19.219Z,99142.40
2023-03-24T09:56:51.288Z,99141.05
2023-03-24T09:59:29.628Z,99141.80
2023-03-24T10:01:59.205Z,99143.59
2023-03-24T10:04:28.902Z,99139.89
2023-03-24T10:07:08.843Z,99137.34
2023-03-24T10:09:37.996Z,99140.80
2023-03-24T10:12:22.067Z,99140.52
2023-03-24T10:14:56.386Z,99139.34
2023-03-24T10:17:30.289Z,99136.02
2023-03-24T10:20:43.912Z,99134.20
2023-03-24T10:23:31.834Z,99128.25
2023-03-24T10:26:27.657Z,99122.10
2023-03-24T10:29:02.489Z,99119.36
2023-03-24T10:31:32.579Z,99120.66
2023-03-24T10:34:01.121Z,99116.86
2023-03-24T10:36:31.197Z,99120.00
2023-03-24T10:39:03.931Z,99118.72
2023-03-24T10:41:42.722Z,99115.90
2023-03-24T10:44:12.415Z,99114.64
2023-03-24T10:46:47.141Z,99112.20
2023-03-24T10:49:20.030Z,99110.43
2023-03-24T10:51:51.611Z,99103.15
2023-03-24T10:54:22.309Z,99101.38
2023-03-24T10:56:59.261Z,99098.79
2023-03-24T10:59:46.037Z,99097.27
2023-03-24T11:02:18.152Z,99086.86
2023-03-24T11:04:58.140Z,99082.89
2023-03-24T11:07:37.833Z,99082.65
2023-03-24T11:10:08.242Z,99076.25
2023-03-24T11:12:39.221Z,99074.21
2023-03-24T11:15:22.097Z,99073.71
2023-03-24T11:18:14.456Z,99076.95
2023-03-24T11:21:08.140Z,99072.66
2023-03-24T11:23:42.963Z,99070.79
2023-03-24T11:26:15.736Z,99071.27
2023-03-24T11:29:04.360Z,99070.52
2023-03-24T11:31:38.532Z,99066.15
2023-03-24T11:34:10.670Z,99058.30
2023-03-24T11:36:46.841Z,99061.77
2023-03-24T11:39:19.239Z,99056.27
2023-03-24T11:42:05.360Z,99054.70
2023-03-24T11:44:40.629Z,99051.27
2023-03-24T11:47:29.950Z,99050.58
2023-03-24T11:50:07.369Z,99050.88
2023-03-24T11:52:49.950Z,99047.71
2023-03-24T11:55:29.399Z,99038.69
2023-03-24T11:58:10.995Z,99031.04
2023-03-24T12:00:48.691Z,99032.44
2023-03-24T12:03:36.759Z,99025.66
2023-03-24T12:06:38.500Z,99027.28
2023-03-24T12:09:32.813Z,99027.95
2023-03-24T12:12:27.475Z,99021.79
2023-03-24T12:15:09.697Z,99020.39
2023-03-24T12:18:17.700Z,99020.41
2023-03-24T12:20:48.641Z,99014.34
2023-03-24T12:23:33.056Z,99016.59
2023-03-24T12:26:18.031Z,99018.53
2023-03-24T12:29:06.539Z,99018.84
2023-03-24T12:31:44.587Z,99014.09
2023-03-24T12:34:33.922Z,99016.43
2023-03-24T12:37:06.226Z,99008.83
2023-03-24T12:39:37.622Z,99009.63
2023-03-24T12:42:11.028Z,99007.37
2023-03-24T12:44:46.579Z,99005.92
2023-03-24T12:47:30.536Z,99003.15
2023-03-24T12:50:11.557Z,98997.18
2023-03-24T12:52:43.814Z,98997.49
2023-03-24T12:55:18.200Z,98988.14
2023-03-24T12:57:54.232Z,98996.03
2023-03-24T13:00:28.727Z,98994.39
2023-03-24T13:03:01.932Z,98990.67
2023-03-24T13:05:32.000Z,98985.59
2023-03-24T13:08:03.548Z,98982.02
2023-03-24T13:10:40.599Z,98979.24
2023-03-24T13:13:11.858Z,98978.63
2023-03-24T13:15:42.083Z,98977.25
2023-03-24T13:18:11.329Z,98974.33
2023-03-24T13:21:00.534Z,98975.69
2023-03-24T13:23:35.538Z,98973.60
2023-03-24T13:26:42.860Z,98971.03
2023-03-24T13:29:11.266Z,98972.66
2023-03-24T13:31:43.940Z,98971.65
2023-03-24T13:34:39.597Z,98967.55
2023-03-24T13:37:22.942Z,98964.70
2023-03-24T13:39:58.929Z,98964.58
2023-03-24T13:42:33.357Z,98959.86
2023-03-24T13:45:03.478Z,98955.85
2023-03-24T13:48:02.674Z,98951.48
2023-03-24T13:50:32.856Z,98946.98
2023-03-24T13:53:06.616Z,98948.70
2023-03-24T13:55:37.376Z,98946.44
2023-03-24T13:58:13.237Z,98950.77
2023-03-24T14:01:09.708Z,98946.83
2023-03-24T14:03:39.325Z,98949.71
2023-03-24T14:06:09.662Z,98949.36
2023-03-24T14:08:48.209Z,98953.61
2023-03-24T14:11:32.477Z,98952.44
2023-03-24T14:14:14.211Z,98951.60
2023-03-24T14:17:07.387Z,98952.05
2023-03-24T14:19:40.724Z,98958.46
2023-03-24T14:22:36.509Z,98955.77
2023-03-24T14:25:18.317Z,98956.67
2023-03-24T14:27:48.857Z,98952.73
2023-03-24T14:30:23.899Z,98952.80
2023-03-24T14:32:55.147Z,98949.92
2023-03-24T14:35:35.306Z,98947.84
2023-03-24T14:38:24.434Z,98942.11
2023-03-24T14:40:57.433Z,98945.55
2023-03-24T14:43:30.552Z,98938.26
2023-03-24T14:46:03.130Z,98935.69
2023-03-24T14:48:51.965Z,98932.77
2023-03-24T14:51:36.982Z,98937.00
2023-03-24T14:54:17.284Z,98932.38
2023-03-24T14:56:47.943Z,98929.60
2023-03-24T14:59:44.560Z,98935.41
2023-03-24T15:02:37.229Z,98931.63
2023-03-24T15:05:15.547Z,98926.14
2023-03-24T15:07:46.714Z,98929.44
2023-03-24T15:10:16.526Z,98926.27
2023-03-24T15:12:45.835Z,98923.30
2023-03-24T15:15:24.449Z,98924.46
2023-03-24T15:17:54.156Z,98925.73
2023-03-24T15:20:24.311Z,98922.73
2023-03-24T15:22:56.839Z,98924.05
2023-03-24T15:25:28.306Z,98926.81
2023-03-24T15:27:58.660Z,98924.63
2023-03-24T15:30:28.161Z,98923.63
2023-03-24T15:32:57.437Z,98923.73
2023-03-24T15:35:25.782Z,98926.32
2023-03-24T15:37:56.701Z,98925.37
2023-03-24T15:40:31.961Z,98931.63
2023-03-24T15:43:03.595Z,98930.07
2023-03-24T15:46:11.852Z,98931.97
2023-03-24T15:48:41.355Z,98933.38
2023-03-24T15:51:11.851Z,98930.46
2023-03-24T15:53:49.810Z,98928.73
2023-03-24T15:56:24.663Z,98929.27
2023-03-24T15:59:06.160Z,98933.11
2023-03-24T16:01:39.044Z,98932.19
2023-03-24T16:04:17.882Z,98934.78
2023-03-24T16:06:53.448Z,98933.87
2023-03-24T16:09:27.570Z,98933.74
2023-03-24T16:11:57.089Z,98935.63
2023-03-24T16:14:28.488Z,98936.48
2023-03-24T16:16:59.711Z,98940.81
2023-03-24T16:19:29.637Z,98938.20
2023-03-24T16:22:02.670Z,98944.05
2023-03-24T16:24:32.356Z,98940.40
2023-03-24T16:27:01.477Z,98942.79
2023-03-24T16:29:33.011Z,98946.26
2023-03-24T16:32:01.699Z,98945.20
2023-03-24T16:34:31.946Z,98944.73
2023-03-24T16:37:00.795Z,98943.20
2023-03-24T16:39:30.278Z,98948.17
2023-03-24T16:42:01.566Z,98946.95
2023-03-24T16:44:31.311Z,98949.52
2023-03-24T16:47:00.187Z,98948.12
2023-03-24T16:49:29.148Z,98947.31
2023-03-24T16:51:57.680Z,98947.46
2023-03-24T16:54:32.976Z,98945.63
2023-03-24T16:57:01.666Z,98940.39
2023-03-24T16:59:30.482Z,98941.67
2023-03-24T17:02:03.473Z,98942.19
2023-03-24T17:04:34.217Z,98945.27
2023-03-24T17:07:05.173Z,98940.58
2023-03-24T17:09:36.542Z,98939.20
2023-03-24T17:12:05.182Z,98937.44
2023-03-24T17:14:33.959Z,98938.60
2023-03-24T17:17:04.844Z,98937.43
2023-03-24T17:19:33.402Z,98933.27
2023-03-24T17:22:06.560Z,98934.82
2023-03-24T17:24:38.602Z,98936.08
2023-03-24T17:27:16.918Z,98936.58
2023-03-24T17:29:46.848Z,98938.00
2023-03-24T17:32:15.205Z,98941.94
2023-03-24T17:34:45.845Z,98942.98
2023-03-24T17:37:15.365Z,98939.67
2023-03-24T17:39:44.310Z,98941.12
2023-03-24T17:42:14.982Z,98938.90
2023-03-24T17:44:45.348Z,98938.66
2023-03-24T17:47:21.122Z,98940.84
2023-03-24T17:50:09.844Z,98944.93
2023-03-24T17:52:41.243Z,98948.05
2023-03-24T17:55:10.706Z,98948.35
2023-03-24T17:57:39.457Z,98950.48
2023-03-24T18:00:12.095Z,98948.16
2023-03-24T18:04:01.461Z,98955.02
2023-03-24T18:06:33.869Z,98953.95
2023-03-24T18:09:02.361Z,98955.63
2023-03-24T18:11:31.328Z,98955.71
2023-03-24T18:14:01.758Z,98964.13
2023-03-24T18:16:31.024Z,98964.20
2023-03-24T18:19:01.400Z,98961.39
2023-03-24T18:21:35.131Z,98964.74
2023-03-24T18:24:04.745Z,98967.86
2023-03-24T18:26:33.883Z,98969.91
2023-03-24T18:29:03.725Z,98970.31
2023-03-24T18:31:33.751Z,98969.17
2023-03-24T18:34:03.685Z,98973.08
2023-03-24T18:36:34.640Z,98973.07
2023-03-24T18:39:05.802Z,98977.70
2023-03-24T18:41:38.010Z,98977.10
2023-03-24T18:44:17.099Z,98976.33
2023-03-24T18:46:49.169Z,98974.25
2023-03-24T18:49:18.240Z,98970.72
2023-03-24T18:51:47.027Z,98971.05
2023-03-24T18:54:16.001Z,98966.95
2023-03-24T18:56:44.579Z,98971.62
2023-03-24T18:59:16.760Z,98972.66
2023-03-24T19:01:48.743Z,98966.56
2023-03-24T19:04:17.667Z,98970.02
2023-03-24T19:06:47.341Z,98967.44
2023-03-24T19:09:20.398Z,98968.34
2023-03-24T19:11:49.506Z,98963.29
2023-03-24T19:14:17.906Z,98961.63
2023-03-24T19:16:46.744Z,98953.61
2023-03-24T19:19:18.637Z,98951.70
2023-03-24T19:21:47.785Z,98947.98
2023-03-24T19:24:17.292Z,98951.31
2023-03-24T19:26:45.800Z,98950.86
2023-03-24T19:29:14.366Z,98952.20
2023-03-24T19:31:42.694Z,98950.63
2023-03-24T19:34:11.290Z,98951.66
2023-03-24T19:36:45.463Z,98953.23
2023-03-24T19:39:15.823Z,98951.31
2023-03-24T19:41:44.767Z,98953.30
2023-03-24T19:44:13.331Z,98952.58
2023-03-24T19:46:42.657Z,98951.92
2023-03-24T19:49:11.214Z,98952.19
2023-03-24T19:51:39.526Z,98947.37
2023-03-24T19:54:07.928Z,98946.89
2023-03-24T19:56:36.620Z,98943.23
2023-03-24T19:59:06.587Z,98938.59
2023-03-24T20:01:35.902Z,98931.55
2023-03-24T20:04:04.378Z,98926.98
2023-03-24T20:06:35.849Z,98927.40
2023-03-24T20:09:05.204Z,98919.10
2023-03-24T20:11:33.690Z,98919.04
2023-03-24T20:14:02.272Z,98911.73
2023-03-24T20:16:30.925Z,98914.81
2023-03-24T20:18:59.374Z,98910.02
2023-03-24T20:21:33.158Z,98907.71
2023-03-24T20:24:02.911Z,98912.84
2023-03-24T20:26:35.520Z,98907.96
2023-03-24T20:29:04.970Z,98903.30
2023-03-24T20:31:33.568Z,98904.63
2023-03-24T20:34:03.426Z,98905.08
2023-03-24T20:36:32.548Z,98904.05
2023-03-24T20:39:07.047Z,98903.57
2023-03-24T20:41:36.423Z,98903.31
2023-03-24T20:44:05.419Z,98900.23
2023-03-24T20:46:33.802Z,98896.95
2023-03-24T20:49:02.673Z,98895.22
2023-03-24T20:51:31.302Z,98897.80
2023-03-24T20:53:59.787Z,98899.13
2023-03-24T20:56:28.937Z,98898.02
2023-03-24T20:58:57.552Z,98896.96
2023-03-24T21:01:26.065Z,98889.77
2023-03-24T21:03:55.613Z,98891.41
2023-03-24T21:06:29.469Z,98889.77
2023-03-24T21:08:59.699Z,98889.40
2023-03-24T21:11:31.440Z,98890.24
2023-03-24T21:14:00.159Z,98890.02
2023-03-24T21:16:29.136Z,98887.84
2023-03-24T21:19:02.000Z,98885.38
2023-03-24T21:21:30.438Z,98886.51
2023-03-24T21:23:58.791Z,98883.98
2023-03-24T21:26:27.215Z,98882.33
2023-03-24T21:28:55.564Z,98880.27
2023-03-24T21:31:32.003Z,98880.14
2023-03-24T21:34:01.135Z,98871.55
2023-03-24T21:36:33.001Z,98874.77
2023-03-24T21:39:07.075Z,98869.56
2023-03-24T21:41:39.056Z,98861.17
2023-03-24T21:44:13.904Z,98860.58
2023-03-24T21:46:43.176Z,98857.47
2023-03-24T21:49:11.506Z,98855.80
2023-03-24T21:51:43.030Z,98856.39
2023-03-24T21:54:15.135Z,98856.87
2023-03-24T21:56:43.575Z,98856.41
2023-03-24T21:59:12.327Z,98856.67
2023-03-24T22:01:42.327Z,98859.75
2023-03-24T22:04:11.184Z,98861.45
2023-03-24T22:06:39.931Z,98859.95
2023-03-24T22:09:10.601Z,98852.95
2023-03-24T22:11:43.024Z,98845.46
2023-03-24T22:14:19.346Z,98844.39
2023-03-24T22:16:49.637Z,98839.83
2023-03-24T22:19:18.167Z,98835.45
2023-03-24T22:22:02.494Z,98832.02
2023-03-24T22:24:32.078Z,98829.90
2023-03-24T22:27:01.092Z,98829.02
2023-03-24T22:29:29.611Z,98826.11
2023-03-24T22:31:57.951Z,98822.88
2023-03-24T22:34:28.862Z,98826.58
2023-03-24T22:36:57.522Z,98826.08
2023-03-24T22:39:26.281Z,98820.02
2023-03-24T22:41:57.416Z,98816.92
2023-03-24T22:44:26.030Z,98805.76
2023-03-24T22:46:59.312Z,98801.13
2023-03-24T22:49:33.014Z,98802.59
2023-03-24T22:52:01.550Z,98799.91
2023-03-24T22:54:36.481Z,98803.52
2023-03-24T22:57:05.561Z,98801.33
2023-03-24T22:59:39.696Z,98800.33
2023-03-24T23:02:10.283Z,98799.16
2023-03-24T23:04:40.638Z,98797.98
2023-03-24T23:07:10.418Z,98791.52
2023-03-24T23:09:43.742Z,98787.65
2023-03-24T23:12:13.748Z,98795.20
2023-03-24T23:14:42.497Z,98791.16
2023-03-24T23:17:10.806Z,98789.78
2023-03-24T23:19:39.749Z,98787.09
2023-03-24T23:22:08.564Z,98784.11
2023-03-24T23:24:39.730Z,98786.60
2023-03-24T23:27:08.814Z,98784.42
2023-03-24T23:29:40.902Z,98781.87
2023-03-24T23:32:09.392Z,98775.95
2023-03-24T23:34:38.292Z,98774.43
2023-03-24T23:37:06.710Z,98768.66
2023-03-24T23:39:38.704Z,98765.15
2023-03-24T23:42:07.064Z,98754.80
2023-03-24T23:44:38.852Z,98759.23
2023-03-24T23:47:07.330Z,98759.96
2023-03-24T23:49:35.814Z,98756.20
2023-03-24T23:52:04.452Z,98755.08
2023-03-24T23:54:32.934Z,98752.80
2023-03-24T23:57:01.422Z,98756.25
2023-03-24T23:59:30.743Z,98759.58
